sensor_id;sensor_type;location;lat;lon;timestamp;temperature;humidity
19610;DHT22;9952;47.122;-1.638;2022-09-16T00:01:25;15.70;99.90
19610;DHT22;9952;47.122;-1.638;2022-09-16T00:06:06;15.60;99.90
19610;DHT22;9952;47.122;-1.638;2022-09-16T00:10:47;15.50;99.90
19610;DHT22;9952;47.122;-1.638;2022-09-16T00:15:28;15.40;99.90
19610;DHT22;9952;47.122;-1.638;2022-09-16T00:20:09;15.30;99.90
19610;DHT22;9952;47.122;-1.638;2022-09-16T00:24:50;15.30;99.90
19610;DHT22;9952;47.122;-1.638;2022-09-16T00:29:31;15.30;99.90
19610;DHT22;9952;47.122;-1.638;2022-09-16T00:34:12;15.20;99.90
19610;DHT22;9952;47.122;-1.638;2022-09-16T00:38:53;15.20;99.90
19610;DHT22;9952;47.122;-1.638;2022-09-16T00:43:55;15.20;99.90
19610;DHT22;9952;47.122;-1.638;2022-09-16T00:48:36;15.10;99.90
19610;DHT22;9952;47.122;-1.638;2022-09-16T00:53:24;15.00;99.90
19610;DHT22;9952;47.122;-1.638;2022-09-16T01:03:16;14.80;99.90
19610;DHT22;9952;47.122;-1.638;2022-09-16T01:07:57;14.70;99.90
19610;DHT22;9952;47.122;-1.638;2022-09-16T01:12:39;14.70;99.90
19610;DHT22;9952;47.122;-1.638;2022-09-16T01:32:28;14.40;99.90
19610;DHT22;9952;47.122;-1.638;2022-09-16T01:51:48;14.30;99.90
19610;DHT22;9952;47.122;-1.638;2022-09-16T02:02:04;14.20;99.90
19610;DHT22;9952;47.122;-1.638;2022-09-16T02:06:49;14.20;99.90
19610;DHT22;9952;47.122;-1.638;2022-09-16T02:11:31;14.10;99.90
19610;DHT22;9952;47.122;-1.638;2022-09-16T02:21:32;14.00;99.90
19610;DHT22;9952;47.122;-1.638;2022-09-16T02:26:16;13.90;99.90
19610;DHT22;9952;47.122;-1.638;2022-09-16T02:31:02;13.90;99.90
19610;DHT22;9952;47.122;-1.638;2022-09-16T02:35:47;13.80;99.90
19610;DHT22;9952;47.122;-1.638;2022-09-16T02:40:54;13.60;99.90
19610;DHT22;9952;47.122;-1.638;2022-09-16T02:50:47;13.40;99.90
19610;DHT22;9952;47.122;-1.638;2022-09-16T03:00:22;13.30;99.90
19610;DHT22;9952;47.122;-1.638;2022-09-16T03:05:04;13.20;99.90
19610;DHT22;9952;47.122;-1.638;2022-09-16T03:09:46;13.20;99.90
19610;DHT22;9952;47.122;-1.638;2022-09-16T03:29:06;13.20;99.90
19610;DHT22;9952;47.122;-1.638;2022-09-16T03:33:56;13.20;99.90
19610;DHT22;9952;47.122;-1.638;2022-09-16T03:38:38;13.20;99.90
19610;DHT22;9952;47.122;-1.638;2022-09-16T03:43:20;13.20;99.90
19610;DHT22;9952;47.122;-1.638;2022-09-16T03:48:01;13.20;99.90
19610;DHT22;9952;47.122;-1.638;2022-09-16T03:52:42;13.20;99.90
19610;DHT22;9952;47.122;-1.638;2022-09-16T03:57:22;13.20;99.90
19610;DHT22;9952;47.122;-1.638;2022-09-16T04:02:03;13.20;99.90
19610;DHT22;9952;47.122;-1.638;2022-09-16T04:06:44;13.20;99.90
19610;DHT22;9952;47.122;-1.638;2022-09-16T04:11:25;13.10;99.90
19610;DHT22;9952;47.122;-1.638;2022-09-16T04:16:09;13.10;99.90
19610;DHT22;9952;47.122;-1.638;2022-09-16T04:20:50;13.10;99.90
19610;DHT22;9952;47.122;-1.638;2022-09-16T04:25:30;13.10;99.90
19610;DHT22;9952;47.122;-1.638;2022-09-16T04:30:12;13.10;99.90
19610;DHT22;9952;47.122;-1.638;2022-09-16T04:34:53;13.10;99.90
19610;DHT22;9952;47.122;-1.638;2022-09-16T04:39:34;13.10;99.90
19610;DHT22;9952;47.122;-1.638;2022-09-16T04:44:15;13.10;99.90
19610;DHT22;9952;47.122;-1.638;2022-09-16T04:48:57;13.10;99.90
19610;DHT22;9952;47.122;-1.638;2022-09-16T04:53:39;13.10;99.90
19610;DHT22;9952;47.122;-1.638;2022-09-16T04:58:20;13.10;99.90
19610;DHT22;9952;47.122;-1.638;2022-09-16T05:03:01;13.10;99.90
19610;DHT22;9952;47.122;-1.638;2022-09-16T05:07:42;13.10;99.90
19610;DHT22;9952;47.122;-1.638;2022-09-16T05:12:22;13.10;99.90
19610;DHT22;9952;47.122;-1.638;2022-09-16T05:17:03;13.10;99.90
19610;DHT22;9952;47.122;-1.638;2022-09-16T05:21:44;13.10;99.90
19610;DHT22;9952;47.122;-1.638;2022-09-16T05:26:27;13.00;99.90
19610;DHT22;9952;47.122;-1.638;2022-09-16T05:31:12;13.10;99.90
19610;DHT22;9952;47.122;-1.638;2022-09-16T05:35:53;13.10;99.90
19610;DHT22;9952;47.122;-1.638;2022-09-16T05:40:34;13.10;99.90
19610;DHT22;9952;47.122;-1.638;2022-09-16T05:45:15;13.00;99.90
19610;DHT22;9952;47.122;-1.638;2022-09-16T05:49:56;13.10;99.90
19610;DHT22;9952;47.122;-1.638;2022-09-16T05:54:36;13.00;99.90
19610;DHT22;9952;47.122;-1.638;2022-09-16T05:59:17;13.00;99.90
19610;DHT22;9952;47.122;-1.638;2022-09-16T06:04:01;13.00;99.90
19610;DHT22;9952;47.122;-1.638;2022-09-16T06:08:42;13.00;99.90
19610;DHT22;9952;47.122;-1.638;2022-09-16T06:13:23;12.90;99.90
19610;DHT22;9952;47.122;-1.638;2022-09-16T06:18:03;12.90;99.90
19610;DHT22;9952;47.122;-1.638;2022-09-16T06:22:44;13.00;99.90
19610;DHT22;9952;47.122;-1.638;2022-09-16T06:27:25;13.00;99.90
19610;DHT22;9952;47.122;-1.638;2022-09-16T06:32:06;13.00;99.90
19610;DHT22;9952;47.122;-1.638;2022-09-16T06:36:47;13.00;99.90
19610;DHT22;9952;47.122;-1.638;2022-09-16T06:41:30;13.00;99.90
19610;DHT22;9952;47.122;-1.638;2022-09-16T06:46:22;13.00;99.90
19610;DHT22;9952;47.122;-1.638;2022-09-16T06:51:05;13.10;99.90
19610;DHT22;9952;47.122;-1.638;2022-09-16T06:55:46;13.20;99.90
19610;DHT22;9952;47.122;-1.638;2022-09-16T07:00:27;13.20;99.90
19610;DHT22;9952;47.122;-1.638;2022-09-16T07:05:08;13.40;99.90
19610;DHT22;9952;47.122;-1.638;2022-09-16T07:09:49;13.50;99.90
19610;DHT22;9952;47.122;-1.638;2022-09-16T07:14:30;13.70;99.90
19610;DHT22;9952;47.122;-1.638;2022-09-16T07:19:13;13.70;99.90
19610;DHT22;9952;47.122;-1.638;2022-09-16T07:23:56;13.90;99.90
19610;DHT22;9952;47.122;-1.638;2022-09-16T07:28:38;14.30;99.90
19610;DHT22;9952;47.122;-1.638;2022-09-16T07:33:19;14.50;99.90
19610;DHT22;9952;47.122;-1.638;2022-09-16T07:38:00;14.60;99.90
19610;DHT22;9952;47.122;-1.638;2022-09-16T07:42:41;14.60;99.90
19610;DHT22;9952;47.122;-1.638;2022-09-16T07:47:22;14.70;99.90
19610;DHT22;9952;47.122;-1.638;2022-09-16T07:52:03;14.70;99.90
19610;DHT22;9952;47.122;-1.638;2022-09-16T07:56:44;14.60;99.90
19610;DHT22;9952;47.122;-1.638;2022-09-16T08:01:25;14.70;99.90
19610;DHT22;9952;47.122;-1.638;2022-09-16T08:06:11;15.30;99.90
19610;DHT22;9952;47.122;-1.638;2022-09-16T08:10:55;15.60;99.90
19610;DHT22;9952;47.122;-1.638;2022-09-16T08:15:36;15.80;99.90
19610;DHT22;9952;47.122;-1.638;2022-09-16T08:20:17;16.00;99.90
19610;DHT22;9952;47.122;-1.638;2022-09-16T08:24:57;16.20;99.90
19610;DHT22;9952;47.122;-1.638;2022-09-16T08:29:38;16.70;99.90
19610;DHT22;9952;47.122;-1.638;2022-09-16T08:34:19;17.30;99.90
19610;DHT22;9952;47.122;-1.638;2022-09-16T08:39:00;17.80;99.90
19610;DHT22;9952;47.122;-1.638;2022-09-16T08:43:45;18.30;99.90
19610;DHT22;9952;47.122;-1.638;2022-09-16T08:48:56;18.70;99.90
19610;DHT22;9952;47.122;-1.638;2022-09-16T08:53:43;18.60;99.90
19610;DHT22;9952;47.122;-1.638;2022-09-16T08:58:34;18.80;99.90
19610;DHT22;9952;47.122;-1.638;2022-09-16T09:13:25;18.80;99.90
19610;DHT22;9952;47.122;-1.638;2022-09-16T09:27:49;18.80;99.90
19610;DHT22;9952;47.122;-1.638;2022-09-16T09:43:35;19.60;99.90
19610;DHT22;9952;47.122;-1.638;2022-09-16T09:48:20;19.90;99.90
19610;DHT22;9952;47.122;-1.638;2022-09-16T09:53:28;20.10;99.90
19610;DHT22;9952;47.122;-1.638;2022-09-16T10:03:14;19.80;99.90
19610;DHT22;9952;47.122;-1.638;2022-09-16T10:08:21;20.30;99.90
19610;DHT22;9952;47.122;-1.638;2022-09-16T10:13:08;20.50;99.90
19610;DHT22;9952;47.122;-1.638;2022-09-16T10:17:50;20.10;99.90
19610;DHT22;9952;47.122;-1.638;2022-09-16T10:22:33;20.50;99.90
19610;DHT22;9952;47.122;-1.638;2022-09-16T10:32:09;20.60;99.90
19610;DHT22;9952;47.122;-1.638;2022-09-16T10:37:12;20.30;99.90
19610;DHT22;9952;47.122;-1.638;2022-09-16T10:41:54;20.30;99.90
19610;DHT22;9952;47.122;-1.638;2022-09-16T10:46:34;20.00;99.90
19610;DHT22;9952;47.122;-1.638;2022-09-16T10:51:29;20.20;99.90
19610;DHT22;9952;47.122;-1.638;2022-09-16T10:56:23;20.30;99.90
19610;DHT22;9952;47.122;-1.638;2022-09-16T11:01:28;20.50;99.90
19610;DHT22;9952;47.122;-1.638;2022-09-16T11:06:22;20.60;99.90
19610;DHT22;9952;47.122;-1.638;2022-09-16T11:11:24;20.40;99.90
19610;DHT22;9952;47.122;-1.638;2022-09-16T11:31:35;20.00;99.90
19610;DHT22;9952;47.122;-1.638;2022-09-16T11:41:41;19.80;99.90
19610;DHT22;9952;47.122;-1.638;2022-09-16T11:56:35;20.40;99.90
19610;DHT22;9952;47.122;-1.638;2022-09-16T12:01:56;20.70;99.90
19610;DHT22;9952;47.122;-1.638;2022-09-16T12:06:58;20.90;99.90
19610;DHT22;9952;47.122;-1.638;2022-09-16T12:11:50;20.80;99.90
19610;DHT22;9952;47.122;-1.638;2022-09-16T12:16:47;20.30;99.90
19610;DHT22;9952;47.122;-1.638;2022-09-16T12:26:40;20.60;99.90
19610;DHT22;9952;47.122;-1.638;2022-09-16T12:36:14;20.30;99.90
19610;DHT22;9952;47.122;-1.638;2022-09-16T12:41:09;20.10;99.90
19610;DHT22;9952;47.122;-1.638;2022-09-16T12:50:59;19.80;99.90
19610;DHT22;9952;47.122;-1.638;2022-09-16T12:56:23;20.10;99.90
19610;DHT22;9952;47.122;-1.638;2022-09-16T13:05:50;20.40;99.90
19610;DHT22;9952;47.122;-1.638;2022-09-16T13:10:33;20.10;99.90
19610;DHT22;9952;47.122;-1.638;2022-09-16T13:15:37;19.80;99.90
19610;DHT22;9952;47.122;-1.638;2022-09-16T13:20:26;19.70;99.90
19610;DHT22;9952;47.122;-1.638;2022-09-16T13:25:20;19.80;99.90
19610;DHT22;9952;47.122;-1.638;2022-09-16T13:30:13;20.10;99.90
19610;DHT22;9952;47.122;-1.638;2022-09-16T13:35:02;20.50;99.60
19610;DHT22;9952;47.122;-1.638;2022-09-16T13:39:43;20.80;98.40
19610;DHT22;9952;47.122;-1.638;2022-09-16T13:53:59;20.10;99.80
19610;DHT22;9952;47.122;-1.638;2022-09-16T13:58:55;19.90;99.90
19610;DHT22;9952;47.122;-1.638;2022-09-16T14:14:02;20.80;99.40
19610;DHT22;9952;47.122;-1.638;2022-09-16T14:19:00;21.00;99.50
19610;DHT22;9952;47.122;-1.638;2022-09-16T14:23:43;21.10;99.30
19610;DHT22;9952;47.122;-1.638;2022-09-16T14:28:26;20.60;98.60
19610;DHT22;9952;47.122;-1.638;2022-09-16T14:33:09;20.20;99.90
19610;DHT22;9952;47.122;-1.638;2022-09-16T14:37:57;20.10;99.90
19610;DHT22;9952;47.122;-1.638;2022-09-16T14:42:47;20.10;99.90
19610;DHT22;9952;47.122;-1.638;2022-09-16T14:47:33;20.30;99.60
19610;DHT22;9952;47.122;-1.638;2022-09-16T14:52:29;20.50;98.80
19610;DHT22;9952;47.122;-1.638;2022-09-16T14:57:24;20.40;99.10
19610;DHT22;9952;47.122;-1.638;2022-09-16T15:02:15;20.40;99.90
19610;DHT22;9952;47.122;-1.638;2022-09-16T15:07:10;20.00;99.90
19610;DHT22;9952;47.122;-1.638;2022-09-16T15:11:57;19.90;99.90
19610;DHT22;9952;47.122;-1.638;2022-09-16T15:17:00;19.80;99.90
19610;DHT22;9952;47.122;-1.638;2022-09-16T15:21:43;19.90;99.90
19610;DHT22;9952;47.122;-1.638;2022-09-16T15:26:29;20.10;99.90
19610;DHT22;9952;47.122;-1.638;2022-09-16T15:31:10;20.00;99.90
19610;DHT22;9952;47.122;-1.638;2022-09-16T15:35:52;19.90;99.90
19610;DHT22;9952;47.122;-1.638;2022-09-16T15:40:33;19.70;99.90
19610;DHT22;9952;47.122;-1.638;2022-09-16T15:45:40;19.50;99.90
19610;DHT22;9952;47.122;-1.638;2022-09-16T15:50:22;19.40;99.90
19610;DHT22;9952;47.122;-1.638;2022-09-16T15:55:05;19.50;99.90
19610;DHT22;9952;47.122;-1.638;2022-09-16T16:04:33;19.60;99.90
19610;DHT22;9952;47.122;-1.638;2022-09-16T16:14:07;20.00;99.90
19610;DHT22;9952;47.122;-1.638;2022-09-16T16:18:48;20.10;99.90
19610;DHT22;9952;47.122;-1.638;2022-09-16T16:23:29;19.90;99.90
19610;DHT22;9952;47.122;-1.638;2022-09-16T16:28:09;19.70;99.90
19610;DHT22;9952;47.122;-1.638;2022-09-16T16:32:50;19.40;99.90
19610;DHT22;9952;47.122;-1.638;2022-09-16T16:37:31;19.30;99.90
19610;DHT22;9952;47.122;-1.638;2022-09-16T16:42:14;19.20;99.90
19610;DHT22;9952;47.122;-1.638;2022-09-16T16:46:55;19.10;99.90
19610;DHT22;9952;47.122;-1.638;2022-09-16T16:51:36;19.10;99.90
19610;DHT22;9952;47.122;-1.638;2022-09-16T16:56:16;19.30;99.90
19610;DHT22;9952;47.122;-1.638;2022-09-16T17:01:09;19.30;99.90
19610;DHT22;9952;47.122;-1.638;2022-09-16T17:05:51;19.30;99.90
19610;DHT22;9952;47.122;-1.638;2022-09-16T17:10:31;19.20;99.90
19610;DHT22;9952;47.122;-1.638;2022-09-16T17:15:12;19.10;99.90
19610;DHT22;9952;47.122;-1.638;2022-09-16T17:19:53;19.10;99.90
19610;DHT22;9952;47.122;-1.638;2022-09-16T17:24:34;19.20;99.90
19610;DHT22;9952;47.122;-1.638;2022-09-16T17:29:15;19.10;99.90
19610;DHT22;9952;47.122;-1.638;2022-09-16T17:33:58;18.80;99.90
19610;DHT22;9952;47.122;-1.638;2022-09-16T17:38:42;18.70;99.90
19610;DHT22;9952;47.122;-1.638;2022-09-16T17:43:24;18.50;99.90
19610;DHT22;9952;47.122;-1.638;2022-09-16T17:48:05;18.50;99.90
19610;DHT22;9952;47.122;-1.638;2022-09-16T17:52:46;18.40;99.90
19610;DHT22;9952;47.122;-1.638;2022-09-16T17:57:27;18.30;99.90
19610;DHT22;9952;47.122;-1.638;2022-09-16T18:02:08;18.30;99.90
19610;DHT22;9952;47.122;-1.638;2022-09-16T18:06:49;18.20;99.90
19610;DHT22;9952;47.122;-1.638;2022-09-16T18:11:30;18.00;99.90
19610;DHT22;9952;47.122;-1.638;2022-09-16T18:16:14;17.90;99.90
19610;DHT22;9952;47.122;-1.638;2022-09-16T18:20:55;17.80;99.90
19610;DHT22;9952;47.122;-1.638;2022-09-16T18:25:37;17.80;99.90
19610;DHT22;9952;47.122;-1.638;2022-09-16T18:30:17;17.60;99.90
19610;DHT22;9952;47.122;-1.638;2022-09-16T18:34:58;17.60;99.90
19610;DHT22;9952;47.122;-1.638;2022-09-16T18:39:39;17.70;99.90
19610;DHT22;9952;47.122;-1.638;2022-09-16T18:44:21;17.60;99.90
19610;DHT22;9952;47.122;-1.638;2022-09-16T18:49:05;17.60;99.90
19610;DHT22;9952;47.122;-1.638;2022-09-16T18:53:47;17.60;99.90
19610;DHT22;9952;47.122;-1.638;2022-09-16T18:58:29;17.50;99.90
19610;DHT22;9952;47.122;-1.638;2022-09-16T19:03:09;17.40;99.90
19610;DHT22;9952;47.122;-1.638;2022-09-16T19:07:50;17.30;99.90
19610;DHT22;9952;47.122;-1.638;2022-09-16T19:12:31;17.20;99.90
19610;DHT22;9952;47.122;-1.638;2022-09-16T19:17:12;16.90;99.90
19610;DHT22;9952;47.122;-1.638;2022-09-16T19:21:52;16.80;99.90
19610;DHT22;9952;47.122;-1.638;2022-09-16T19:26:35;16.80;99.90
19610;DHT22;9952;47.122;-1.638;2022-09-16T19:31:17;16.70;99.90
19610;DHT22;9952;47.122;-1.638;2022-09-16T19:35:58;16.60;99.90
19610;DHT22;9952;47.122;-1.638;2022-09-16T19:40:39;16.60;99.90
19610;DHT22;9952;47.122;-1.638;2022-09-16T19:45:20;16.60;99.90
19610;DHT22;9952;47.122;-1.638;2022-09-16T19:50:01;16.50;99.90
19610;DHT22;9952;47.122;-1.638;2022-09-16T19:54:42;16.40;99.90
19610;DHT22;9952;47.122;-1.638;2022-09-16T19:59:23;16.30;99.90
19610;DHT22;9952;47.122;-1.638;2022-09-16T20:04:06;16.20;99.90
19610;DHT22;9952;47.122;-1.638;2022-09-16T20:09:41;16.10;99.90
19610;DHT22;9952;47.122;-1.638;2022-09-16T20:14:22;16.00;99.90
19610;DHT22;9952;47.122;-1.638;2022-09-16T20:19:05;15.90;99.90
19610;DHT22;9952;47.122;-1.638;2022-09-16T20:23:47;15.80;99.90
19610;DHT22;9952;47.122;-1.638;2022-09-16T20:28:33;15.70;99.90
19610;DHT22;9952;47.122;-1.638;2022-09-16T20:33:14;15.60;99.90
19610;DHT22;9952;47.122;-1.638;2022-09-16T20:37:55;15.60;99.90
19610;DHT22;9952;47.122;-1.638;2022-09-16T20:42:36;15.40;99.90
19610;DHT22;9952;47.122;-1.638;2022-09-16T20:47:16;15.40;99.90
19610;DHT22;9952;47.122;-1.638;2022-09-16T20:51:57;15.20;99.90
19610;DHT22;9952;47.122;-1.638;2022-09-16T20:56:40;15.20;99.90
19610;DHT22;9952;47.122;-1.638;2022-09-16T21:01:25;15.20;99.90
19610;DHT22;9952;47.122;-1.638;2022-09-16T21:06:11;15.10;99.90
19610;DHT22;9952;47.122;-1.638;2022-09-16T21:10:52;15.00;99.90
19610;DHT22;9952;47.122;-1.638;2022-09-16T21:15:33;15.00;99.90
19610;DHT22;9952;47.122;-1.638;2022-09-16T21:20:13;14.90;99.90
19610;DHT22;9952;47.122;-1.638;2022-09-16T21:24:54;14.80;99.90
19610;DHT22;9952;47.122;-1.638;2022-09-16T21:29:35;14.80;99.90
19610;DHT22;9952;47.122;-1.638;2022-09-16T21:34:18;14.80;99.90
19610;DHT22;9952;47.122;-1.638;2022-09-16T21:38:59;14.80;99.90
19610;DHT22;9952;47.122;-1.638;2022-09-16T21:43:45;14.70;99.90
19610;DHT22;9952;47.122;-1.638;2022-09-16T21:48:30;14.60;99.90
19610;DHT22;9952;47.122;-1.638;2022-09-16T21:53:11;14.60;99.90
19610;DHT22;9952;47.122;-1.638;2022-09-16T21:57:52;14.50;99.90
19610;DHT22;9952;47.122;-1.638;2022-09-16T22:02:33;14.40;99.90
19610;DHT22;9952;47.122;-1.638;2022-09-16T22:07:13;14.30;99.90
19610;DHT22;9952;47.122;-1.638;2022-09-16T22:11:54;14.20;99.90
19610;DHT22;9952;47.122;-1.638;2022-09-16T22:16:36;14.20;99.90
19610;DHT22;9952;47.122;-1.638;2022-09-16T22:21:17;14.10;99.90
19610;DHT22;9952;47.122;-1.638;2022-09-16T22:26:03;14.10;99.90
19610;DHT22;9952;47.122;-1.638;2022-09-16T22:30:44;14.00;99.90
19610;DHT22;9952;47.122;-1.638;2022-09-16T22:35:25;13.90;99.90
19610;DHT22;9952;47.122;-1.638;2022-09-16T22:40:06;13.80;99.90
19610;DHT22;9952;47.122;-1.638;2022-09-16T22:44:47;13.80;99.90
19610;DHT22;9952;47.122;-1.638;2022-09-16T22:49:28;13.70;99.90
19610;DHT22;9952;47.122;-1.638;2022-09-16T22:54:11;13.60;99.90
19610;DHT22;9952;47.122;-1.638;2022-09-16T22:58:53;13.60;99.90
19610;DHT22;9952;47.122;-1.638;2022-09-16T23:03:35;13.50;99.90
19610;DHT22;9952;47.122;-1.638;2022-09-16T23:08:16;13.40;99.90
19610;DHT22;9952;47.122;-1.638;2022-09-16T23:12:57;13.40;99.90
19610;DHT22;9952;47.122;-1.638;2022-09-16T23:17:39;13.30;99.90
19610;DHT22;9952;47.122;-1.638;2022-09-16T23:22:20;13.20;99.90
19610;DHT22;9952;47.122;-1.638;2022-09-16T23:27:01;13.10;99.90
19610;DHT22;9952;47.122;-1.638;2022-09-16T23:31:42;13.10;99.90
19610;DHT22;9952;47.122;-1.638;2022-09-16T23:36:25;13.10;99.90
19610;DHT22;9952;47.122;-1.638;2022-09-16T23:41:08;13.00;99.90
19610;DHT22;9952;47.122;-1.638;2022-09-16T23:45:50;13.00;99.90
19610;DHT22;9952;47.122;-1.638;2022-09-16T23:50:31;12.90;99.90
19610;DHT22;9952;47.122;-1.638;2022-09-16T23:55:12;12.80;99.90
19610;DHT22;9952;47.122;-1.638;2022-09-16T23:59:53;12.70;99.90
